Time;durP1;ratioP1;P1;durP2;ratioP2;P2;SDS_P1;SDS_P2;PMS_P1;PMS_P2;Temp;Humidity;BMP_temperature;BMP_pressure;BME280_temperature;BME280_humidity;BME280_pressure;Samples;Min_cycle;Max_cycle;Signal;HPM_P1;HPM_P2
2022/03/21 00:02:14;;;;;;;1.47;1.20;;;10.10;99.90;;;;;;5012431;28;20561;-70
2022/03/21 00:04:39;;;;;;;1.03;0.93;;;10.00;99.90;;;;;;5012177;28;20187;-70
2022/03/21 00:07:05;;;;;;;2.03;1.93;;;10.00;99.90;;;;;;5011983;28;20176;-70
2022/03/21 00:09:30;;;;;;;0.80;0.60;;;10.00;99.90;;;;;;5012456;28;20210;-70
2022/03/21 00:11:56;;;;;;;1.47;1.40;;;10.00;99.90;;;;;;5012193;28;20283;-70
2022/03/21 00:14:22;;;;;;;1.43;1.33;;;10.00;99.90;;;;;;5011916;28;20688;-70
2022/03/21 00:16:48;;;;;;;1.83;0.70;;;10.00;99.90;;;;;;5010160;28;20168;-70
2022/03/21 00:19:14;;;;;;;0.80;0.80;;;10.00;99.90;;;;;;5011955;28;20407;-70
2022/03/21 00:21:40;;;;;;;2.50;1.30;;;10.00;99.90;;;;;;5010755;28;20506;-70
2022/03/21 00:24:06;;;;;;;0.80;0.77;;;9.90;99.90;;;;;;5012077;28;20267;-70
2022/03/21 00:26:31;;;;;;;0.97;0.87;;;9.90;99.90;;;;;;5011783;28;20693;-70
2022/03/21 00:28:57;;;;;;;0.80;0.80;;;9.90;99.90;;;;;;5011806;28;20816;-70
2022/03/21 00:31:22;;;;;;;0.80;0.60;;;9.90;99.90;;;;;;5012032;28;20281;-70
2022/03/21 00:33:48;;;;;;;0.77;0.57;;;9.90;99.90;;;;;;5011716;28;20180;-70
2022/03/21 00:36:14;;;;;;;0.97;0.87;;;9.90;99.90;;;;;;5011838;28;20226;-70
2022/03/21 00:38:41;;;;;;;1.10;0.93;;;9.90;99.90;;;;;;5011844;28;20909;-70
2022/03/21 00:41:07;;;;;;;2.00;1.60;;;9.90;99.90;;;;;;5011927;28;20283;-70
2022/03/21 00:43:33;;;;;;;1.40;0.70;;;9.90;99.90;;;;;;5011770;28;20482;-70
2022/03/21 00:46:00;;;;;;;4.17;0.73;;;9.90;99.90;;;;;;5011725;28;20812;-70
2022/03/21 00:48:28;;;;;;;0.77;0.50;;;9.80;99.90;;;;;;5011630;28;20415;-70
2022/03/21 00:50:55;;;;;;;1.07;1.00;;;9.80;99.90;;;;;;5011704;28;20840;-69
2022/03/21 00:53:21;;;;;;;1.17;1.07;;;9.80;99.90;;;;;;5011708;28;20400;-70
2022/03/21 00:55:48;;;;;;;0.70;0.60;;;9.80;99.90;;;;;;5010163;28;20453;-70
2022/03/21 00:58:14;;;;;;;1.30;1.10;;;9.80;99.90;;;;;;5011828;28;20490;-70
2022/03/21 01:00:39;;;;;;;0.80;0.70;;;9.80;99.90;;;;;;5011862;28;20737;-70
2022/03/21 01:03:05;;;;;;;0.73;0.60;;;9.70;99.90;;;;;;5011735;28;20429;-70
2022/03/21 01:05:31;;;;;;;3.13;0.70;;;9.70;99.90;;;;;;5011694;28;20192;-70
2022/03/21 01:07:58;;;;;;;2.20;2.10;;;9.70;99.90;;;;;;5011391;28;20406;-70
2022/03/21 01:10:26;;;;;;;1.10;0.90;;;9.70;99.90;;;;;;5011682;28;20585;-70
2022/03/21 01:12:52;;;;;;;2.20;1.30;;;9.60;99.90;;;;;;5011563;28;20984;-70
2022/03/21 01:15:20;;;;;;;1.57;0.80;;;9.60;99.90;;;;;;5010283;28;20427;-70
2022/03/21 01:17:47;;;;;;;2.33;1.83;;;9.60;99.90;;;;;;5011317;28;20399;-70
2022/03/21 01:20:14;;;;;;;2.13;1.03;;;9.50;99.90;;;;;;5011522;28;20438;-70
2022/03/21 01:22:40;;;;;;;1.70;1.50;;;9.50;99.90;;;;;;5010516;28;20935;-70
2022/03/21 01:25:07;;;;;;;1.40;1.30;;;9.40;99.90;;;;;;5011684;28;20422;-70
2022/03/21 01:27:34;;;;;;;3.53;0.90;;;9.30;99.90;;;;;;5012670;28;20420;-70
2022/03/21 01:30:08;;;;;;;2.80;1.23;;;9.30;99.90;;;;;;5014957;28;20407;-70
2022/03/21 01:32:34;;;;;;;1.50;1.40;;;9.20;99.90;;;;;;5014932;28;20455;-70
2022/03/21 01:35:00;;;;;;;1.23;1.13;;;9.20;99.90;;;;;;5014773;28;20426;-70
2022/03/21 01:37:25;;;;;;;1.30;1.20;;;9.10;99.90;;;;;;5013406;28;20809;-70
2022/03/21 01:39:51;;;;;;;0.97;0.87;;;9.10;99.90;;;;;;5014802;28;20457;-70
2022/03/21 01:42:16;;;;;;;0.97;0.87;;;9.10;99.90;;;;;;5014862;28;20176;-70
2022/03/21 01:44:42;;;;;;;4.17;1.87;;;9.10;99.90;;;;;;5014648;28;20216;-70
2022/03/21 01:47:09;;;;;;;1.53;1.37;;;9.10;99.90;;;;;;5014479;28;20172;-70
2022/03/21 01:49:35;;;;;;;0.80;0.70;;;9.10;99.90;;;;;;5014611;28;20419;-70
2022/03/21 01:52:00;;;;;;;11.40;0.87;;;9.10;99.90;;;;;;5014626;28;20814;-70
2022/03/21 01:57:11;;;;;;;2.70;1.07;;;9.00;99.90;;;;;;5014295;28;20218;-70
2022/03/21 01:59:37;;;;;;;1.37;0.90;;;9.00;99.90;;;;;;5014494;28;20400;-70
2022/03/21 02:02:05;;;;;;;1.23;1.10;;;9.00;99.90;;;;;;5014436;28;20411;-70
2022/03/21 02:04:31;;;;;;;1.63;0.70;;;8.90;99.90;;;;;;5014239;28;20442;-70
2022/03/21 02:06:57;;;;;;;2.90;0.93;;;8.80;99.90;;;;;;5014113;28;20764;-70
2022/03/21 02:09:22;;;;;;;0.90;0.80;;;8.80;99.90;;;;;;5014311;28;20215;-70
2022/03/21 02:11:48;;;;;;;0.70;0.50;;;8.70;99.90;;;;;;5014215;28;20250;-70
2022/03/21 02:14:14;;;;;;;1.57;0.90;;;8.60;99.90;;;;;;5014216;28;20192;-70
2022/03/21 02:16:39;;;;;;;1.20;1.07;;;8.50;99.90;;;;;;5013837;28;20178;-70
2022/03/21 02:19:31;;;;;;;0.70;0.50;;;8.40;99.90;;;;;;5014044;28;20910;-70
2022/03/21 02:22:17;;;;;;;0.70;0.50;;;8.30;99.90;;;;;;5014006;28;20168;-70
2022/03/21 02:24:49;;;;;;;5.97;2.30;;;8.20;99.90;;;;;;5013896;28;20958;-70
2022/03/21 02:27:16;;;;;;;0.70;0.50;;;8.00;99.90;;;;;;5013569;28;20411;-70
2022/03/21 02:29:44;;;;;;;1.10;0.87;;;8.00;99.90;;;;;;5013916;28;20408;-70
2022/03/21 02:32:10;;;;;;;0.70;0.50;;;7.90;99.90;;;;;;5013772;28;20455;-70
2022/03/21 02:34:37;;;;;;;0.80;0.80;;;7.80;99.90;;;;;;5013568;28;20505;-70
2022/03/21 02:37:03;;;;;;;1.30;1.17;;;7.70;99.90;;;;;;5013495;28;20579;-70
2022/03/21 02:39:29;;;;;;;2.40;1.00;;;7.60;99.90;;;;;;5013406;28;20502;-70
2022/03/21 02:41:56;;;;;;;0.80;0.67;;;7.50;99.90;;;;;;5013570;28;20506;-70
2022/03/21 02:44:22;;;;;;;12.43;6.27;;;7.50;99.90;;;;;;5013465;28;20805;-70
2022/03/21 02:46:47;;;;;;;1.20;1.07;;;7.40;99.90;;;;;;5013066;28;20400;-70
2022/03/21 02:49:16;;;;;;;0.90;0.60;;;7.30;99.90;;;;;;5013621;28;20407;-70
2022/03/21 02:51:43;;;;;;;0.70;0.60;;;7.20;99.90;;;;;;5013380;28;20286;-70
2022/03/21 02:54:09;;;;;;;1.97;1.27;;;7.20;99.90;;;;;;5013265;28;20458;-70
2022/03/21 02:56:35;;;;;;;1.30;1.17;;;7.10;99.90;;;;;;5013077;28;20403;-70
2022/03/21 02:59:00;;;;;;;1.17;0.70;;;7.10;99.90;;;;;;5013305;28;20454;-70
2022/03/21 03:01:26;;;;;;;1.00;0.83;;;7.00;99.90;;;;;;5013301;28;20547;-70
2022/03/21 03:03:52;;;;;;;0.70;0.50;;;7.00;99.90;;;;;;5013180;28;20274;-70
2022/03/21 03:06:17;;;;;;;0.70;0.50;;;7.00;99.90;;;;;;5012985;28;20505;-70
2022/03/21 03:08:44;;;;;;;0.70;0.50;;;6.90;99.90;;;;;;5013385;28;20171;-70
2022/03/21 03:11:11;;;;;;;1.63;1.53;;;6.90;99.90;;;;;;5013062;28;20188;-70
2022/03/21 03:13:37;;;;;;;0.70;0.50;;;6.90;99.90;;;;;;5013186;28;20960;-70
2022/03/21 03:16:03;;;;;;;0.70;0.50;;;6.90;99.90;;;;;;5012541;28;20414;-70
2022/03/21 03:18:29;;;;;;;0.70;0.50;;;6.90;99.90;;;;;;5012883;28;20418;-70
2022/03/21 03:20:56;;;;;;;0.80;0.60;;;6.90;99.90;;;;;;5011693;28;20413;-70
2022/03/21 03:23:24;;;;;;;0.80;0.70;;;6.90;99.90;;;;;;5012845;28;20156;-70
2022/03/21 03:26:08;;;;;;;0.70;0.50;;;6.90;99.90;;;;;;5012730;28;20399;-70
2022/03/21 03:28:33;;;;;;;1.57;0.60;;;6.90;99.90;;;;;;5012893;28;20417;-69
2022/03/21 03:31:00;;;;;;;2.27;1.00;;;7.00;99.90;;;;;;5012669;28;20399;-70
2022/03/21 03:33:27;;;;;;;0.70;0.50;;;7.00;99.90;;;;;;5011392;28;20191;-70
2022/03/21 03:35:53;;;;;;;0.87;0.60;;;7.10;99.90;;;;;;5012530;28;20400;-70
2022/03/21 03:38:19;;;;;;;0.97;0.60;;;7.10;99.90;;;;;;5012492;28;20399;-70
2022/03/21 03:40:44;;;;;;;0.70;0.60;;;7.10;99.90;;;;;;5012720;28;20627;-70
2022/03/21 03:43:11;;;;;;;0.70;0.50;;;7.10;99.90;;;;;;5012597;28;20965;-70
2022/03/21 03:45:37;;;;;;;0.70;0.60;;;7.10;99.90;;;;;;5012552;28;20192;-70
2022/03/21 03:48:04;;;;;;;0.70;0.50;;;7.10;99.90;;;;;;5012050;28;20427;-70
2022/03/21 03:50:30;;;;;;;0.70;0.50;;;7.10;99.90;;;;;;5011638;28;20923;-70
2022/03/21 03:52:55;;;;;;;0.70;0.50;;;7.10;99.90;;;;;;5012313;28;20446;-70
2022/03/21 03:55:21;;;;;;;2.60;1.03;;;7.10;99.90;;;;;;5012282;28;20208;-70
2022/03/21 03:57:47;;;;;;;1.33;0.87;;;7.10;99.90;;;;;;5012159;28;20199;-69
2022/03/21 04:00:15;;;;;;;2.40;2.30;;;7.10;99.90;;;;;;5012302;28;20578;-69
2022/03/21 04:05:33;;;;;;;1.43;1.33;;;7.10;99.90;;;;;;5011209;28;20462;-69
2022/03/21 04:07:58;;;;;;;0.70;0.50;;;7.10;99.90;;;;;;5012091;28;20407;-69
2022/03/21 04:10:24;;;;;;;0.80;0.60;;;7.10;99.90;;;;;;5012203;28;20657;-70
2022/03/21 04:12:50;;;;;;;0.70;0.50;;;7.10;99.90;;;;;;5012176;28;20704;-69
2022/03/21 04:15:18;;;;;;;0.70;0.50;;;7.10;99.90;;;;;;5012009;28;20604;-70
2022/03/21 04:17:44;;;;;;;1.80;1.10;;;7.20;99.90;;;;;;5011827;28;20841;-69
2022/03/21 04:20:10;;;;;;;0.70;0.50;;;7.20;99.90;;;;;;5012161;28;20494;-69
2022/03/21 04:22:36;;;;;;;0.70;0.60;;;7.20;99.90;;;;;;5012217;28;20412;-70
2022/03/21 04:25:07;;;;;;;3.23;3.13;;;7.30;99.90;;;;;;5011630;28;20435;-70
2022/03/21 04:27:33;;;;;;;0.70;0.50;;;7.30;99.90;;;;;;5011808;28;20490;-69
2022/03/21 04:30:03;;;;;;;6.80;1.27;;;7.30;99.90;;;;;;5012063;28;20422;-70
2022/03/21 04:32:29;;;;;;;0.70;0.50;;;7.20;99.90;;;;;;5011998;28;20454;-70
2022/03/21 04:34:55;;;;;;;0.70;0.60;;;7.20;99.90;;;;;;5011872;28;20433;-70
2022/03/21 04:37:20;;;;;;;1.67;1.57;;;7.10;99.90;;;;;;5011845;28;20520;-70
2022/03/21 04:39:46;;;;;;;1.13;1.03;;;7.00;99.90;;;;;;5011968;28;20173;-70
2022/03/21 04:42:12;;;;;;;0.70;0.50;;;7.00;99.90;;;;;;5011919;28;20172;-70
2022/03/21 04:44:39;;;;;;;1.40;1.07;;;6.90;99.90;;;;;;5011826;28;20192;-69
2022/03/21 04:47:08;;;;;;;0.70;0.50;;;6.80;99.90;;;;;;5011617;28;20557;-69
2022/03/21 04:49:34;;;;;;;0.90;0.80;;;6.80;99.90;;;;;;5011631;28;20426;-70
2022/03/21 04:51:59;;;;;;;0.70;0.50;;;6.80;99.90;;;;;;5011688;28;20443;-70
2022/03/21 04:54:28;;;;;;;0.70;0.60;;;6.80;99.90;;;;;;5011721;28;20203;-70
2022/03/21 04:56:55;;;;;;;1.40;0.83;;;6.70;99.90;;;;;;5011562;28;20671;-69
2022/03/21 04:59:20;;;;;;;0.70;0.50;;;6.70;99.90;;;;;;5011818;28;20433;-70
2022/03/21 05:01:47;;;;;;;0.70;0.60;;;6.70;99.90;;;;;;5013729;28;20403;-70
2022/03/21 05:04:12;;;;;;;1.07;0.87;;;6.70;99.90;;;;;;5015473;28;20190;-69
2022/03/21 05:06:38;;;;;;;0.70;0.60;;;6.60;99.90;;;;;;5015058;28;20490;-70
2022/03/21 05:09:03;;;;;;;0.70;0.50;;;6.60;99.90;;;;;;5015376;28;20168;-69
2022/03/21 05:11:29;;;;;;;1.20;1.10;;;6.50;99.90;;;;;;5015299;28;20192;-70
2022/03/21 05:13:56;;;;;;;1.10;0.70;;;6.40;99.90;;;;;;5015193;28;20196;-70
2022/03/21 05:16:22;;;;;;;0.80;0.60;;;6.40;99.90;;;;;;5015014;28;20399;-70
2022/03/21 05:18:49;;;;;;;1.33;1.00;;;6.30;99.90;;;;;;5015272;28;20438;-70
2022/03/21 05:21:15;;;;;;;1.00;0.90;;;6.20;99.90;;;;;;5015157;28;20168;-70
2022/03/21 05:31:52;;;;;;;1.63;1.53;;;5.90;99.90;;;;;;5014868;28;20501;-69
2022/03/21 05:37:02;;;;;;;0.70;0.50;;;5.80;99.90;;;;;;5014756;28;20222;-69
2022/03/21 05:39:28;;;;;;;0.70;0.50;;;5.70;99.90;;;;;;5014907;28;20399;-70
2022/03/21 05:41:53;;;;;;;1.00;1.00;;;5.70;99.90;;;;;;5014818;28;20226;-70
2022/03/21 05:44:19;;;;;;;0.70;0.60;;;5.60;99.90;;;;;;5014728;28;20195;-70
2022/03/21 05:46:46;;;;;;;0.70;0.50;;;5.60;99.90;;;;;;5014516;28;20199;-70
2022/03/21 05:49:12;;;;;;;0.70;0.60;;;5.60;99.90;;;;;;5014651;28;20438;-70
2022/03/21 05:51:40;;;;;;;0.80;0.70;;;5.60;99.90;;;;;;5014626;28;20922;-70
2022/03/21 05:54:11;;;;;;;1.97;0.70;;;5.50;99.90;;;;;;5014397;28;20446;-71
2022/03/21 05:56:41;;;;;;;0.70;0.50;;;5.50;99.90;;;;;;5014296;28;20407;-71
2022/03/21 06:01:52;;;;;;;1.00;0.70;;;5.50;99.90;;;;;;5014552;28;20406;-71
2022/03/21 06:04:19;;;;;;;0.70;0.50;;;5.50;99.90;;;;;;5014132;28;20430;-71
2022/03/21 06:06:45;;;;;;;0.90;0.60;;;5.60;99.90;;;;;;5014130;28;20438;-71
2022/03/21 06:09:12;;;;;;;0.90;0.80;;;5.60;99.90;;;;;;5014283;28;20411;-70
2022/03/21 06:11:38;;;;;;;0.70;0.50;;;5.70;99.90;;;;;;5014305;28;20447;-70
2022/03/21 06:14:05;;;;;;;0.70;0.50;;;5.80;99.90;;;;;;5013470;28;20815;-71
2022/03/21 06:16:33;;;;;;;0.70;0.57;;;5.90;99.90;;;;;;5013808;28;20419;-70
2022/03/21 06:19:00;;;;;;;0.70;0.60;;;6.10;99.90;;;;;;5013977;28;20454;-70
2022/03/21 06:21:29;;;;;;;0.83;0.80;;;6.20;99.90;;;;;;5014136;28;20412;-70
2022/03/21 06:23:55;;;;;;;0.77;0.70;;;6.30;99.90;;;;;;5013870;28;20668;-71
2022/03/21 06:26:20;;;;;;;0.70;0.50;;;6.50;99.90;;;;;;5013711;28;20407;-71
2022/03/21 06:28:47;;;;;;;1.10;1.00;;;6.60;99.90;;;;;;5013929;28;20422;-71
2022/03/21 06:31:13;;;;;;;1.67;1.57;;;6.70;99.90;;;;;;5012402;28;20270;-71
2022/03/21 06:33:39;;;;;;;2.57;2.43;;;6.80;99.90;;;;;;5013536;28;20771;-71
2022/03/21 06:36:04;;;;;;;0.80;0.70;;;6.90;99.90;;;;;;5013781;28;20403;-69
2022/03/21 06:38:30;;;;;;;0.70;0.50;;;7.10;99.90;;;;;;5012169;28;20172;-70
2022/03/21 06:40:56;;;;;;;1.00;0.90;;;7.20;99.90;;;;;;5013714;28;20172;-71
2022/03/21 06:43:22;;;;;;;1.27;0.90;;;7.30;99.90;;;;;;5013591;28;20431;-69
2022/03/21 06:45:51;;;;;;;2.50;2.40;;;7.50;99.90;;;;;;5013452;28;20514;-69
2022/03/21 06:48:17;;;;;;;0.70;0.60;;;7.60;99.90;;;;;;5013335;28;20408;-69
2022/03/21 06:50:46;;;;;;;1.10;0.87;;;7.70;99.90;;;;;;5013519;28;20951;-70
2022/03/21 06:53:12;;;;;;;4.77;1.00;;;7.80;99.90;;;;;;5013413;28;20954;-70
2022/03/21 06:55:37;;;;;;;2.70;1.27;;;7.90;99.90;;;;;;5013260;28;20489;-69
2022/03/21 06:58:03;;;;;;;1.17;1.07;;;8.00;99.90;;;;;;5013630;28;21169;-69
2022/03/21 07:00:29;;;;;;;2.43;2.33;;;8.20;99.90;;;;;;5013176;28;20259;-69
2022/03/21 07:02:55;;;;;;;2.30;1.83;;;8.30;99.90;;;;;;5013338;28;20498;-69
2022/03/21 07:05:21;;;;;;;2.50;1.30;;;8.40;99.90;;;;;;5013060;28;20441;-70
2022/03/21 07:07:47;;;;;;;0.97;0.90;;;8.50;99.90;;;;;;5013030;28;20453;-69
2022/03/21 07:10:12;;;;;;;1.07;0.60;;;8.70;99.90;;;;;;5013026;28;20168;-71
2022/03/21 07:12:38;;;;;;;1.83;1.07;;;8.90;99.90;;;;;;5013071;28;20203;-70
2022/03/21 07:15:04;;;;;;;1.43;1.30;;;9.10;99.90;;;;;;5013008;28;20196;-70
2022/03/21 07:17:30;;;;;;;1.67;1.57;;;9.20;99.90;;;;;;5012832;28;20172;-70
2022/03/21 07:19:56;;;;;;;2.93;1.50;;;9.40;99.90;;;;;;5012941;28;20406;-71
2022/03/21 07:22:21;;;;;;;1.87;1.77;;;9.70;99.90;;;;;;5013024;28;20240;-70
2022/03/21 07:24:47;;;;;;;1.07;0.97;;;9.90;99.90;;;;;;5010623;28;20188;-70
2022/03/21 07:27:13;;;;;;;1.43;1.33;;;10.50;99.90;;;;;;5012582;28;20641;-70
2022/03/21 07:29:38;;;;;;;3.30;2.87;;;11.00;99.90;;;;;;5012856;28;20222;-70
2022/03/21 07:32:04;;;;;;;2.90;1.23;;;11.70;99.90;;;;;;5012657;28;20492;-70
2022/03/21 07:34:30;;;;;;;4.00;2.20;;;12.30;99.90;;;;;;5012760;28;20184;-71
2022/03/21 07:36:55;;;;;;;2.80;1.57;;;12.80;99.90;;;;;;5012492;28;20914;-71
2022/03/21 07:39:21;;;;;;;4.03;3.73;;;13.40;99.90;;;;;;5012697;28;20668;-71
2022/03/21 07:41:47;;;;;;;4.63;2.37;;;13.90;99.90;;;;;;5012508;28;20172;-71
2022/03/21 07:47:17;;;;;;;4.00;3.60;;;14.60;99.90;;;;;;5012538;28;20191;-69
2022/03/21 07:49:43;;;;;;;4.67;2.37;;;15.30;99.90;;;;;;5012429;28;20441;-70
2022/03/21 07:52:09;;;;;;;7.60;3.93;;;15.60;99.90;;;;;;5012330;28;20439;-70
2022/03/21 07:54:35;;;;;;;6.03;4.60;;;16.00;99.90;;;;;;5012204;28;21006;-70
2022/03/21 07:57:00;;;;;;;3.33;3.13;;;16.20;99.90;;;;;;5012185;28;20403;-69
2022/03/21 07:59:26;;;;;;;3.40;3.20;;;16.50;99.90;;;;;;5012423;28;20165;-68
2022/03/21 08:01:51;;;;;;;3.63;2.77;;;16.80;98.70;;;;;;5012511;28;20661;-70
2022/03/21 08:04:17;;;;;;;4.50;3.20;;;17.10;95.40;;;;;;5012288;28;20199;-69
2022/03/21 08:06:44;;;;;;;3.13;2.57;;;17.70;95.50;;;;;;5011968;28;20172;-68
2022/03/21 08:09:09;;;;;;;4.63;3.33;;;18.20;90.20;;;;;;5012373;28;20160;-69
2022/03/21 08:11:35;;;;;;;2.90;2.50;;;18.50;85.80;;;;;;5012178;28;21198;-69
2022/03/21 08:14:01;;;;;;;4.80;3.40;;;19.00;85.20;;;;;;5012189;28;20188;-69
2022/03/21 08:16:26;;;;;;;7.43;3.67;;;19.60;80.70;;;;;;5012034;28;20200;-69
2022/03/21 08:18:52;;;;;;;7.37;3.37;;;20.10;76.90;;;;;;5010903;28;20262;-69
2022/03/21 08:21:19;;;;;;;6.07;5.47;;;20.30;68.90;;;;;;5012042;28;20168;-71
2022/03/21 08:23:46;;;;;;;6.27;3.20;;;20.60;67.00;;;;;;5012074;28;20192;-71
2022/03/21 08:26:11;;;;;;;3.80;3.37;;;20.60;64.90;;;;;;5012218;28;20469;-71
2022/03/21 08:28:37;;;;;;;4.07;2.30;;;21.20;65.30;;;;;;5011820;28;20904;-71
2022/03/21 08:31:03;;;;;;;5.17;3.57;;;21.30;61.60;;;;;;5012027;28;20518;-71
2022/03/21 08:33:29;;;;;;;4.00;3.60;;;21.60;59.70;;;;;;5011859;28;20164;-71
2022/03/21 08:35:54;;;;;;;9.67;3.27;;;22.10;61.00;;;;;;5012590;28;20415;-71
2022/03/21 08:38:20;;;;;;;4.40;4.00;;;22.70;59.30;;;;;;5015638;28;20580;-71
2022/03/21 08:40:46;;;;;;;4.23;3.83;;;23.10;56.50;;;;;;5016018;28;20175;-71
2022/03/21 08:43:11;;;;;;;3.40;2.90;;;23.30;55.60;;;;;;5015811;28;20172;-70
2022/03/21 08:45:37;;;;;;;8.87;4.30;;;23.80;54.40;;;;;;5015734;28;20558;-71
2022/03/21 08:48:03;;;;;;;5.37;4.00;;;24.00;52.30;;;;;;5015549;28;20200;-71
2022/03/21 08:50:30;;;;;;;7.73;4.77;;;24.20;50.40;;;;;;5015681;28;20164;-71
2022/03/21 08:52:58;;;;;;;6.90;3.73;;;24.60;50.30;;;;;;5015609;28;20454;-70
2022/03/21 08:55:24;;;;;;;5.10;4.23;;;25.20;50.50;;;;;;5015457;28;20450;-71
2022/03/21 08:57:50;;;;;;;4.47;3.40;;;25.70;48.90;;;;;;5015404;28;20398;-70
2022/03/21 09:00:16;;;;;;;4.77;4.00;;;26.10;47.70;;;;;;5015621;28;20908;-71
2022/03/21 09:02:42;;;;;;;10.00;4.00;;;26.20;45.90;;;;;;5015512;28;20469;-70
2022/03/21 09:05:13;;;;;;;4.13;3.73;;;26.40;45.40;;;;;;5015337;28;20192;-71
2022/03/21 09:07:39;;;;;;;3.97;3.03;;;26.50;44.90;;;;;;5015242;28;20172;-71
2022/03/21 09:10:07;;;;;;;3.70;3.40;;;27.00;45.90;;;;;;5015444;28;20411;-71
2022/03/21 09:12:33;;;;;;;4.70;4.27;;;27.60;44.80;;;;;;5014042;28;20469;-71
2022/03/21 09:14:59;;;;;;;3.97;3.43;;;28.00;43.90;;;;;;5015200;28;20466;-71
2022/03/21 09:17:26;;;;;;;4.20;3.80;;;28.40;44.00;;;;;;5013700;28;20172;-71
2022/03/21 09:19:52;;;;;;;8.37;5.23;;;28.20;41.30;;;;;;5015366;28;20442;-71
2022/03/21 09:22:17;;;;;;;4.77;3.77;;;27.80;40.90;;;;;;5013968;28;20450;-71
2022/03/21 09:24:43;;;;;;;5.50;3.00;;;27.70;41.10;;;;;;5015148;28;20251;-71
2022/03/21 09:27:10;;;;;;;6.63;4.00;;;28.10;42.10;;;;;;5014894;28;20532;-71
2022/03/21 09:29:36;;;;;;;3.87;2.93;;;29.00;42.50;;;;;;5015059;28;20196;-71
2022/03/21 09:32:02;;;;;;;5.27;4.83;;;29.50;40.60;;;;;;5014946;28;20477;-71
2022/03/21 09:34:28;;;;;;;4.13;3.67;;;29.40;39.20;;;;;;5014842;28;20514;-71
2022/03/21 09:36:54;;;;;;;5.60;4.40;;;29.70;39.00;;;;;;5014802;28;20223;-71
2022/03/21 09:39:20;;;;;;;4.30;3.90;;;29.90;39.20;;;;;;5014962;28;20403;-71
2022/03/21 09:41:47;;;;;;;4.27;3.90;;;30.70;39.80;;;;;;5015238;28;20934;-71
2022/03/21 09:44:13;;;;;;;6.33;3.63;;;30.70;38.10;;;;;;5014744;28;20211;-71
2022/03/21 09:46:41;;;;;;;7.63;3.80;;;31.30;38.60;;;;;;5014636;28;20450;-71
2022/03/21 09:49:10;;;;;;;3.47;3.03;;;31.50;37.30;;;;;;5013666;28;20164;-71
2022/03/21 09:51:38;;;;;;;3.80;3.33;;;31.90;37.80;;;;;;5014636;28;20450;-71
2022/03/21 09:54:03;;;;;;;9.43;5.07;;;32.30;36.80;;;;;;5014514;28;20821;-71
2022/03/21 09:56:30;;;;;;;6.20;3.97;;;32.60;36.10;;;;;;5014682;28;20457;-71
2022/03/21 09:58:59;;;;;;;6.60;3.87;;;32.90;36.20;;;;;;5014328;28;20176;-71
2022/03/21 10:01:29;;;;;;;5.10;4.60;;;32.90;35.60;;;;;;5013264;28;20411;-71
2022/03/21 10:03:55;;;;;;;5.40;4.80;;;33.30;35.80;;;;;;5014356;28;20489;-71
2022/03/21 10:06:34;;;;;;;4.87;4.03;;;33.70;35.40;;;;;;5014515;28;20487;-71
2022/03/21 10:09:26;;;;;;;8.33;5.00;;;34.50;35.30;;;;;;5014219;28;20403;-69
2022/03/21 10:11:53;;;;;;;2.73;2.53;;;34.70;34.70;;;;;;5012118;28;20451;-70
2022/03/21 10:14:26;;;;;;;7.77;4.27;;;35.20;34.10;;;;;;5014297;28;20419;-70
2022/03/21 10:16:53;;;;;;;5.23;4.77;;;35.70;34.00;;;;;;5014116;28;20408;-70
2022/03/21 10:19:19;;;;;;;7.30;4.97;;;36.10;33.40;;;;;;5013083;28;20457;-70
2022/03/21 10:22:01;;;;;;;4.90;3.40;;;36.50;33.20;;;;;;5012921;28;20932;-70
2022/03/21 10:24:26;;;;;;;4.17;3.77;;;37.20;33.50;;;;;;5013988;28;20624;-70
2022/03/21 10:26:53;;;;;;;5.70;4.80;;;37.10;32.00;;;;;;5013837;28;20403;-70
2022/03/21 10:29:19;;;;;;;6.47;5.53;;;37.60;32.80;;;;;;5014094;28;20804;-70
2022/03/21 10:31:51;;;;;;;4.23;3.83;;;38.00;31.70;;;;;;5014076;28;20438;-70
2022/03/21 10:34:19;;;;;;;3.80;3.40;;;38.40;31.20;;;;;;5013759;28;20238;-70
2022/03/21 10:37:01;;;;;;;6.40;4.57;;;38.90;31.30;;;;;;5013606;28;20457;-70
2022/03/21 10:39:28;;;;;;;6.20;4.57;;;39.50;31.10;;;;;;5013439;28;20435;-70
2022/03/21 10:41:59;;;;;;;6.40;4.60;;;40.10;30.90;;;;;;5012303;28;20467;-71
2022/03/21 10:44:25;;;;;;;8.37;5.47;;;40.70;30.40;;;;;;5013744;28;20423;-71
2022/03/21 10:46:53;;;;;;;5.83;5.33;;;40.80;29.50;;;;;;5013444;28;20421;-71
2022/03/21 10:49:29;;;;;;;5.00;4.47;;;40.50;29.20;;;;;;5013692;28;20164;-71
2022/03/21 10:51:55;;;;;;;7.80;4.80;;;40.50;29.30;;;;;;5012404;28;20423;-71
2022/03/21 10:54:41;;;;;;;5.80;4.03;;;40.50;28.70;;;;;;5013663;28;20454;-71
2022/03/21 10:57:31;;;;;;;6.47;5.53;;;40.70;29.00;;;;;;5013369;28;20494;-71
2022/03/21 11:00:16;;;;;;;7.40;4.40;;;39.70;28.80;;;;;;5013489;28;20763;-71
2022/03/21 11:03:12;;;;;;;5.80;5.20;;;39.60;29.20;;;;;;5013334;28;20512;-71
2022/03/21 11:05:48;;;;;;;3.63;3.00;;;40.10;29.00;;;;;;5013371;28;20956;-71
2022/03/21 11:08:17;;;;;;;5.80;4.90;;;40.70;28.90;;;;;;5013182;28;20461;-71
2022/03/21 11:10:45;;;;;;;5.30;3.80;;;40.60;28.30;;;;;;5013307;28;20772;-71
2022/03/21 11:13:11;;;;;;;5.13;4.63;;;41.00;28.60;;;;;;5013251;28;20411;-71
2022/03/21 11:15:40;;;;;;;7.90;5.23;;;40.70;28.10;;;;;;5013259;28;20434;-71
2022/03/21 11:18:06;;;;;;;4.87;4.47;;;41.10;28.50;;;;;;5011484;28;20826;-71
2022/03/21 11:20:33;;;;;;;6.57;5.10;;;41.40;28.50;;;;;;5012683;28;20496;-71
2022/03/21 11:23:00;;;;;;;4.67;4.27;;;41.80;28.10;;;;;;5013118;28;20847;-71
2022/03/21 11:25:32;;;;;;;5.43;4.67;;;42.20;28.10;;;;;;5012788;28;20428;-71
2022/03/21 11:28:23;;;;;;;4.27;3.87;;;42.60;27.80;;;;;;5012746;28;20407;-71
2022/03/21 11:31:26;;;;;;;6.53;4.40;;;43.00;27.40;;;;;;5013046;28;20442;-71
2022/03/21 11:34:12;;;;;;;5.40;3.80;;;43.00;27.50;;;;;;5012947;28;20477;-71
2022/03/21 11:36:54;;;;;;;5.50;5.00;;;43.30;27.60;;;;;;5012989;28;20403;-71
2022/03/21 11:39:20;;;;;;;5.40;4.90;;;43.80;27.50;;;;;;5012926;28;20924;-71
2022/03/21 11:41:57;;;;;;;4.97;4.47;;;44.10;27.40;;;;;;5011595;28;20462;-71
2022/03/21 11:44:23;;;;;;;9.73;5.00;;;44.20;27.40;;;;;;5012649;28;20520;-71
2022/03/21 11:46:49;;;;;;;4.87;4.37;;;44.70;27.40;;;;;;5012483;28;20417;-71
2022/03/21 11:49:17;;;;;;;4.07;3.43;;;45.00;27.10;;;;;;5012729;28;20532;-71
2022/03/21 11:51:44;;;;;;;7.17;4.67;;;45.00;27.20;;;;;;5012035;28;20180;-71
2022/03/21 11:54:30;;;;;;;3.57;3.20;;;45.40;26.80;;;;;;5010824;28;20811;-71
2022/03/21 11:57:05;;;;;;;3.97;3.47;;;45.80;26.90;;;;;;5011696;28;20465;-71
2022/03/21 11:59:33;;;;;;;4.57;4.17;;;46.00;26.30;;;;;;5012625;28;20945;-71
2022/03/21 12:02:25;;;;;;;3.97;3.57;;;46.60;26.70;;;;;;5012324;28;20526;-71
2022/03/21 12:05:10;;;;;;;4.40;3.70;;;47.10;26.40;;;;;;5010759;28;20417;-71
2022/03/21 12:07:37;;;;;;;5.33;3.97;;;46.80;26.10;;;;;;5011986;28;20800;-71
2022/03/21 12:10:04;;;;;;;6.27;5.60;;;46.30;25.60;;;;;;5011958;28;20399;-71
2022/03/21 12:12:41;;;;;;;4.40;4.00;;;46.60;26.20;;;;;;5011650;28;20392;-71
2022/03/21 12:15:17;;;;;;;4.43;4.03;;;46.80;26.30;;;;;;5011827;28;20790;-71
2022/03/21 12:17:48;;;;;;;4.07;3.70;;;47.30;26.10;;;;;;5011611;28;20386;-71
2022/03/21 12:20:16;;;;;;;5.63;4.77;;;47.70;26.00;;;;;;5011875;28;20418;-71
2022/03/21 12:22:49;;;;;;;3.83;3.30;;;47.10;26.00;;;;;;5011816;28;20432;-71
2022/03/21 12:25:36;;;;;;;4.80;3.77;;;47.10;25.80;;;;;;5011848;28;20883;-71
2022/03/21 12:31:26;;;;;;;4.80;4.40;;;45.90;26.20;;;;;;5011812;28;20457;-71
2022/03/21 12:33:52;;;;;;;3.80;3.50;;;45.90;26.30;;;;;;5011813;28;20830;-71
2022/03/21 12:36:31;;;;;;;4.50;3.87;;;46.20;26.10;;;;;;5011835;28;20401;-71
2022/03/21 12:38:57;;;;;;;4.37;4.07;;;45.50;26.00;;;;;;5011512;28;20380;-71
2022/03/21 12:41:32;;;;;;;3.87;3.10;;;44.70;26.20;;;;;;5011740;28;20438;-71
2022/03/21 12:43:57;;;;;;;3.13;2.83;;;44.70;26.60;;;;;;5011600;28;20447;-71
2022/03/21 12:46:23;;;;;;;3.03;2.73;;;44.80;26.60;;;;;;5011646;28;20947;-71
2022/03/21 12:48:53;;;;;;;3.27;2.97;;;44.70;26.50;;;;;;5011386;28;20553;-71
2022/03/21 12:51:34;;;;;;;3.00;2.80;;;45.40;26.80;;;;;;5011630;28;20444;-71
2022/03/21 12:54:02;;;;;;;3.70;3.40;;;45.70;26.40;;;;;;5011523;28;20509;-71
2022/03/21 12:56:28;;;;;;;4.50;4.13;;;46.00;26.40;;;;;;5011748;28;20386;-71
2022/03/21 12:59:03;;;;;;;3.63;3.30;;;46.40;26.30;;;;;;5011417;28;20377;-71
2022/03/21 13:01:30;;;;;;;3.97;3.60;;;46.10;26.00;;;;;;5011455;28;20273;-71
2022/03/21 13:12:34;;;;;;;3.87;3.57;;;44.70;25.70;;;;;;5011773;28;20788;-71
2022/03/21 13:15:01;;;;;;;3.93;3.63;;;44.80;26.20;;;;;;5011359;28;20456;-71
2022/03/21 13:17:51;;;;;;;3.40;3.10;;;44.30;26.30;;;;;;5011035;28;20483;-71
2022/03/21 13:20:27;;;;;;;3.27;3.00;;;44.70;26.60;;;;;;5011330;28;20438;-71
2022/03/21 13:23:00;;;;;;;2.40;2.20;;;45.30;26.60;;;;;;5013273;28;20886;-71
2022/03/21 13:25:36;;;;;;;2.63;2.40;;;45.90;26.40;;;;;;5014967;28;20397;-71
2022/03/21 13:28:21;;;;;;;7.10;3.20;;;45.20;26.10;;;;;;5014951;28;20432;-71
2022/03/21 13:30:52;;;;;;;2.40;2.20;;;45.50;26.10;;;;;;5014785;28;20490;-71
2022/03/21 13:33:27;;;;;;;2.07;1.97;;;45.60;26.10;;;;;;5015009;28;20408;-71